createdAt,value
2018-12-02T00:00:30.427Z,5.6
2018-12-02T00:01:37.643Z,5.6
2018-12-02T00:02:44.849Z,5.6
2018-12-02T00:03:51.793Z,5.6
2018-12-02T00:04:58.733Z,5.6
2018-12-02T00:06:05.671Z,5.6
2018-12-02T00:07:12.589Z,5.6
2018-12-02T00:08:19.807Z,5.6
2018-12-02T00:09:27.014Z,5.6
2018-12-02T00:10:33.960Z,5.6
2018-12-02T00:11:40.890Z,5.6
2018-12-02T00:12:48.106Z,5.6
2018-12-02T00:13:55.036Z,5.6
2018-12-02T00:15:02.252Z,5.6
2018-12-02T00:16:09.450Z,5.6
2018-12-02T00:17:16.676Z,5.6
2018-12-02T00:18:23.596Z,5.6
2018-12-02T00:19:30.815Z,5.6
2018-12-02T00:20:38.015Z,5.6
2018-12-02T00:21:45.234Z,5.6
2018-12-02T00:22:52.166Z,5.6
2018-12-02T00:23:59.110Z,5.6
2018-12-02T00:25:06.309Z,5.7
2018-12-02T00:26:13.527Z,5.6
2018-12-02T00:27:20.734Z,5.6
2018-12-02T00:28:27.960Z,5.6
2018-12-02T00:29:34.918Z,5.7
2018-12-02T00:30:42.138Z,5.7
2018-12-02T00:31:49.064Z,5.7
2018-12-02T00:32:56.279Z,5.7
2018-12-02T00:34:03.495Z,5.7
2018-12-02T00:35:10.707Z,5.7
2018-12-02T00:36:17.912Z,5.7
2018-12-02T00:37:24.853Z,5.7
2018-12-02T00:38:31.775Z,5.7
2018-12-02T00:39:38.996Z,5.7
2018-12-02T00:40:46.196Z,5.7
2018-12-02T00:41:53.148Z,5.7
2018-12-02T00:43:00.344Z,5.7
2018-12-02T00:44:07.568Z,5.7
2018-12-02T00:45:14.496Z,5.7
2018-12-02T00:46:21.443Z,5.7
2018-12-02T00:47:28.129Z,5.8
2018-12-02T00:48:35.340Z,5.7
2018-12-02T00:49:42.555Z,5.8
2018-12-02T00:50:49.504Z,5.8
2018-12-02T00:51:56.431Z,5.8
2018-12-02T00:53:03.587Z,5.8
2018-12-02T00:54:10.792Z,5.8
2018-12-02T00:55:17.736Z,5.8
2018-12-02T00:56:24.943Z,5.8
2018-12-02T00:57:32.162Z,5.8
2018-12-02T00:58:38.834Z,5.8
2018-12-02T00:59:46.035Z,5.8
2018-12-02T01:00:53.245Z,5.9
2018-12-02T01:02:00.471Z,5.9
2018-12-02T01:03:07.678Z,5.9
2018-12-02T01:04:14.903Z,5.9
2018-12-02T01:05:22.127Z,5.9
2018-12-02T01:06:29.066Z,5.9
2018-12-02T01:07:36.278Z,5.9
2018-12-02T01:08:43.490Z,5.9
2018-12-02T01:09:50.439Z,5.9
2018-12-02T01:10:57.094Z,5.9
2018-12-02T01:12:04.301Z,5.9
2018-12-02T01:13:11.248Z,5.9
2018-12-02T01:14:18.509Z,5.8
2018-12-02T01:15:26.617Z,5.9
2018-12-02T01:16:33.555Z,5.8
2018-12-02T01:17:40.487Z,5.9
2018-12-02T01:18:47.417Z,5.9
2018-12-02T01:19:54.364Z,5.9
2018-12-02T01:21:01.570Z,5.8
2018-12-02T01:22:08.515Z,5.9
2018-12-02T01:23:15.729Z,5.9
2018-12-02T01:24:22.667Z,5.9
2018-12-02T01:25:29.871Z,5.9
2018-12-02T01:26:37.088Z,5.9
2018-12-02T01:27:44.304Z,5.9
2018-12-02T01:28:51.548Z,5.9
2018-12-02T01:29:58.747Z,5.9
2018-12-02T01:31:05.969Z,5.9
2018-12-02T01:32:13.179Z,5.9
2018-12-02T01:33:20.115Z,5.9
2018-12-02T01:34:27.322Z,5.9
2018-12-02T01:35:34.541Z,5.9
2018-12-02T01:36:41.194Z,5.9
2018-12-02T01:37:48.407Z,5.9
2018-12-02T01:38:55.610Z,6
2018-12-02T01:40:02.818Z,5.9
2018-12-02T01:41:10.016Z,6
2018-12-02T01:42:17.233Z,5.9
2018-12-02T01:43:24.157Z,6
2018-12-02T01:44:31.375Z,6
2018-12-02T01:45:38.580Z,6
2018-12-02T01:46:45.794Z,6
2018-12-02T01:47:52.997Z,6
2018-12-02T01:49:00.218Z,6
2018-12-02T01:50:07.420Z,6
2018-12-02T01:51:14.639Z,6
2018-12-02T01:52:21.869Z,6
2018-12-02T01:53:28.815Z,6
2018-12-02T01:54:36.019Z,6
2018-12-02T01:55:42.963Z,6
2018-12-02T01:56:49.921Z,6.1
2018-12-02T01:57:56.859Z,6
2018-12-02T01:59:04.061Z,6
2018-12-02T02:00:11.275Z,6.1
2018-12-02T02:01:18.288Z,6.1
2018-12-02T02:02:25.512Z,6.1
2018-12-02T02:03:32.717Z,6.1
2018-12-02T02:04:39.938Z,6.1
2018-12-02T02:05:47.140Z,6.1
2018-12-02T02:06:54.353Z,6.1
2018-12-02T02:08:01.561Z,6.1
2018-12-02T02:09:08.495Z,6.1
2018-12-02T02:10:15.703Z,6.1
2018-12-02T02:11:22.921Z,6.1
2018-12-02T02:12:30.168Z,6.1
2018-12-02T02:13:37.389Z,6.1
2018-12-02T02:14:44.602Z,6.1
2018-12-02T02:15:51.532Z,6.1
2018-12-02T02:16:58.738Z,6.1
2018-12-02T02:18:05.691Z,6.1
2018-12-02T02:19:12.901Z,6.1
2018-12-02T02:20:20.127Z,6.1
2018-12-02T02:21:27.327Z,6.1
2018-12-02T02:22:34.548Z,6.1
2018-12-02T02:23:41.761Z,6.1
2018-12-02T02:24:48.714Z,6.1
2018-12-02T02:25:55.916Z,6.1
2018-12-02T02:27:03.125Z,6.1
2018-12-02T02:28:10.334Z,6.1
2018-12-02T02:29:17.019Z,6.1
2018-12-02T02:30:23.953Z,6.1
2018-12-02T02:31:30.913Z,6.1
2018-12-02T02:32:38.113Z,6.1
2018-12-02T02:33:45.335Z,6.1
2018-12-02T02:34:52.535Z,6.1
2018-12-02T02:35:59.483Z,6.1
2018-12-02T02:37:06.690Z,6.1
2018-12-02T02:38:13.901Z,6.1
2018-12-02T02:39:21.101Z,6.1
2018-12-02T02:40:28.316Z,6.1
2018-12-02T02:41:35.518Z,6.1
2018-12-02T02:42:42.738Z,6.1
2018-12-02T02:43:49.943Z,6.1
2018-12-02T02:44:57.168Z,6.1
2018-12-02T02:46:04.375Z,6.1
2018-12-02T02:47:11.317Z,6.1
2018-12-02T02:48:18.525Z,6.1
2018-12-02T02:49:25.743Z,6.1
2018-12-02T02:50:32.943Z,6.1
2018-12-02T02:51:40.155Z,6.1
2018-12-02T02:52:47.362Z,6.1
2018-12-02T02:53:54.028Z,6.1
2018-12-02T02:55:01.236Z,6.1
2018-12-02T02:56:08.182Z,6.1
2018-12-02T02:57:15.391Z,6.1
2018-12-02T02:58:22.608Z,6.1
2018-12-02T02:59:29.541Z,6.1
2018-12-02T03:00:36.764Z,6.1
2018-12-02T03:01:43.420Z,6.1
2018-12-02T03:02:50.115Z,6.2
2018-12-02T03:03:57.321Z,6.2
2018-12-02T03:05:04.544Z,6.2
2018-12-02T03:06:11.468Z,6.1
2018-12-02T03:07:18.685Z,6.1
2018-12-02T03:08:25.901Z,6.1
2018-12-02T03:09:32.575Z,6.1
2018-12-02T03:10:39.498Z,6.1
2018-12-02T03:11:46.165Z,6.1
2018-12-02T03:12:53.378Z,6.1
2018-12-02T03:14:00.601Z,6.1
2018-12-02T03:15:07.531Z,6.2
2018-12-02T03:16:14.745Z,6.2
2018-12-02T03:17:21.950Z,6.2
2018-12-02T03:18:28.896Z,6.2
2018-12-02T03:19:36.096Z,6.2
2018-12-02T03:20:43.312Z,6.2
2018-12-02T03:21:50.251Z,6.2
2018-12-02T03:22:57.266Z,6.2
2018-12-02T03:24:04.474Z,6.2
2018-12-02T03:25:11.695Z,6.2
2018-12-02T03:26:18.902Z,6.2
2018-12-02T03:27:25.914Z,6.2
2018-12-02T03:28:32.845Z,6.2
2018-12-02T03:29:40.065Z,6.2
2018-12-02T03:30:47.285Z,6.2
2018-12-02T03:31:54.238Z,6.2
2018-12-02T03:33:01.443Z,6.2
2018-12-02T03:34:08.663Z,6.2
2018-12-02T03:35:15.866Z,6.2
2018-12-02T03:36:22.805Z,6.2
2018-12-02T03:37:29.741Z,6.1
2018-12-02T03:38:36.958Z,6.1
2018-12-02T03:39:43.626Z,6.1
2018-12-02T03:40:50.875Z,6.1
2018-12-02T03:41:58.061Z,6.1
2018-12-02T03:43:05.284Z,6.1
2018-12-02T03:44:12.497Z,6.2
2018-12-02T03:45:19.714Z,6.1
2018-12-02T03:46:26.924Z,6.2
2018-12-02T03:47:34.149Z,6.2
2018-12-02T03:48:41.359Z,6.1
2018-12-02T03:49:48.581Z,6.2
2018-12-02T03:50:55.787Z,6.1
2018-12-02T03:52:03.003Z,6.1
2018-12-02T03:53:10.207Z,6.1
2018-12-02T03:54:17.427Z,6.1
2018-12-02T03:55:24.359Z,6.1
2018-12-02T03:56:31.049Z,6.1
2018-12-02T03:57:38.253Z,6.1
2018-12-02T03:58:45.471Z,6.1
2018-12-02T03:59:52.678Z,6.1
2018-12-02T04:00:59.902Z,6.2
2018-12-02T04:02:07.106Z,6.2
2018-12-02T04:03:14.052Z,6.2
2018-12-02T04:04:21.255Z,6.2
2018-12-02T04:05:28.471Z,6.2
2018-12-02T04:06:35.673Z,6.2
2018-12-02T04:07:42.934Z,6.2
2018-12-02T04:08:50.144Z,6.2
2018-12-02T04:09:56.824Z,6.2
2018-12-02T04:11:03.762Z,6.2
2018-12-02T04:12:10.977Z,6.2
2018-12-02T04:13:18.185Z,6.2
2018-12-02T04:14:24.917Z,6.2
2018-12-02T04:15:32.134Z,6.2
2018-12-02T04:16:39.350Z,6.2
2018-12-02T04:17:46.557Z,6.2
2018-12-02T04:18:53.498Z,6.3
2018-12-02T04:20:00.699Z,6.2
2018-12-02T04:21:07.947Z,6.2
2018-12-02T04:22:15.155Z,6.2
2018-12-02T04:23:22.374Z,6.2
2018-12-02T04:24:29.589Z,6.2
2018-12-02T04:25:36.334Z,6.2
2018-12-02T04:26:43.270Z,6.2
2018-12-02T04:27:50.484Z,6.2
2018-12-02T04:28:57.684Z,6.2
2018-12-02T04:30:04.908Z,6.3
2018-12-02T04:31:12.113Z,6.3
2018-12-02T04:32:19.329Z,6.3
2018-12-02T04:33:26.535Z,6.3
2018-12-02T04:34:33.755Z,6.3
2018-12-02T04:35:40.969Z,6.3
2018-12-02T04:36:48.192Z,6.3
2018-12-02T04:37:55.395Z,6.3
2018-12-02T04:39:02.611Z,6.3
2018-12-02T04:40:09.757Z,6.3
2018-12-02T04:41:16.975Z,6.3
2018-12-02T04:42:23.918Z,6.3
2018-12-02T04:43:31.133Z,6.3
2018-12-02T04:44:38.333Z,6.3
2018-12-02T04:45:45.275Z,6.3
2018-12-02T04:46:52.492Z,6.4
2018-12-02T04:47:59.441Z,6.4
2018-12-02T04:49:06.662Z,6.4
2018-12-02T04:50:13.903Z,6.4
2018-12-02T04:51:21.113Z,6.4
2018-12-02T04:52:28.331Z,6.4
2018-12-02T04:53:35.546Z,6.4
2018-12-02T04:54:42.760Z,6.4
2018-12-02T04:55:49.700Z,6.4
2018-12-02T04:56:56.944Z,6.4
2018-12-02T04:58:03.881Z,6.4
2018-12-02T04:59:10.847Z,6.4
2018-12-02T05:00:17.780Z,6.4
2018-12-02T05:01:25.003Z,6.4
2018-12-02T05:02:31.933Z,6.4
2018-12-02T05:03:38.878Z,6.4
2018-12-02T05:04:46.096Z,6.4
2018-12-02T05:05:53.312Z,6.4
2018-12-02T05:07:00.253Z,6.4
2018-12-02T05:08:07.471Z,6.4
2018-12-02T05:09:14.682Z,6.4
2018-12-02T05:10:21.885Z,6.4
2018-12-02T05:11:29.099Z,6.4
2018-12-02T05:12:36.317Z,6.4
2018-12-02T05:13:43.520Z,6.4
2018-12-02T05:14:50.743Z,6.4
2018-12-02T05:15:57.948Z,6.4
2018-12-02T05:17:05.169Z,6.4
2018-12-02T05:18:12.378Z,6.4
2018-12-02T05:19:19.327Z,6.4
2018-12-02T05:20:26.268Z,6.4
2018-12-02T05:21:33.210Z,6.4
2018-12-02T05:22:40.141Z,6.3
2018-12-02T05:23:47.364Z,6.4
2018-12-02T05:24:54.573Z,6.3
2018-12-02T05:26:01.520Z,6.3
2018-12-02T05:27:08.728Z,6.3
2018-12-02T05:28:15.955Z,6.3
2018-12-02T05:29:22.883Z,6.4
2018-12-02T05:30:30.105Z,6.4
2018-12-02T05:31:37.314Z,6.4
2018-12-02T05:32:44.531Z,6.4
2018-12-02T05:33:51.770Z,6.4
2018-12-02T05:34:59.025Z,6.4
2018-12-02T05:36:06.237Z,6.4
2018-12-02T05:37:13.464Z,6.3
2018-12-02T05:38:20.670Z,6.3
2018-12-02T05:39:27.617Z,6.3
2018-12-02T05:40:34.830Z,6.3
2018-12-02T05:41:42.051Z,6.3
2018-12-02T05:42:49.247Z,6.3
2018-12-02T05:43:56.192Z,6.3
2018-12-02T05:45:03.396Z,6.3
2018-12-02T05:46:10.610Z,6.3
2018-12-02T05:47:17.539Z,6.3
2018-12-02T05:48:24.752Z,6.3
2018-12-02T05:49:31.963Z,6.3
2018-12-02T05:50:38.906Z,6.3
2018-12-02T05:51:45.844Z,6.3
2018-12-02T05:52:53.055Z,6.2
2018-12-02T05:53:59.989Z,6.3
2018-12-02T05:55:06.937Z,6.3
2018-12-02T05:56:14.143Z,6.2
2018-12-02T05:57:21.357Z,6.2
2018-12-02T05:58:28.284Z,6.2
2018-12-02T05:59:35.503Z,6.2
2018-12-02T06:00:42.434Z,6.2
2018-12-02T06:01:49.377Z,6.2
2018-12-02T06:02:56.040Z,6.2
2018-12-02T06:04:03.260Z,6.2
2018-12-02T06:05:10.464Z,6.3
2018-12-02T06:06:17.684Z,6.3
2018-12-02T06:07:24.609Z,6.2
2018-12-02T06:08:31.821Z,6.3
2018-12-02T06:09:38.751Z,6.3
2018-12-02T06:10:45.423Z,6.3
2018-12-02T06:11:52.353Z,6.3
2018-12-02T06:12:59.305Z,6.3
2018-12-02T06:14:06.240Z,6.3
2018-12-02T06:15:13.195Z,6.3
2018-12-02T06:16:20.125Z,6.3
2018-12-02T06:17:27.078Z,6.3
2018-12-02T06:18:34.002Z,6.3
2018-12-02T06:19:41.225Z,6.3
2018-12-02T06:20:48.428Z,6.3
2018-12-02T06:21:55.374Z,6.3
2018-12-02T06:23:02.586Z,6.3
2018-12-02T06:24:09.798Z,6.3
2018-12-02T06:25:16.999Z,6.2
2018-12-02T06:26:24.215Z,6.3
2018-12-02T06:27:31.417Z,6.2
2018-12-02T06:28:38.372Z,6.2
2018-12-02T06:29:45.578Z,6.2
2018-12-02T06:30:52.517Z,6.2
2018-12-02T06:31:59.731Z,6.2
2018-12-02T06:33:06.945Z,6.3
2018-12-02T06:34:14.153Z,6.2
2018-12-02T06:35:21.375Z,6.2
2018-12-02T06:36:28.574Z,6.2
2018-12-02T06:37:35.792Z,6.2
2018-12-02T06:38:43.000Z,6.2
2018-12-02T06:39:49.936Z,6.2
2018-12-02T06:40:57.131Z,6.2
2018-12-02T06:42:04.088Z,6.2
2018-12-02T06:43:11.297Z,6.2
2018-12-02T06:44:17.983Z,6.2
2018-12-02T06:45:25.177Z,6.2
2018-12-02T06:46:32.395Z,6.2
2018-12-02T06:47:39.614Z,6.2
2018-12-02T06:48:46.829Z,6.2
2018-12-02T06:49:54.046Z,6.2
2018-12-02T06:51:00.998Z,6.2
2018-12-02T06:52:07.938Z,6.2
2018-12-02T06:53:14.604Z,6.2
2018-12-02T06:54:21.842Z,6.2
2018-12-02T06:55:29.063Z,6.2
2018-12-02T06:56:36.277Z,6.2
2018-12-02T06:57:43.223Z,6.2
2018-12-02T06:58:50.429Z,6.2
2018-12-02T06:59:57.653Z,6.2
2018-12-02T07:01:04.591Z,6.2
2018-12-02T07:02:11.814Z,6.2
2018-12-02T07:03:18.737Z,6.2
2018-12-02T07:04:25.956Z,6.2
2018-12-02T07:05:33.158Z,6.2
2018-12-02T07:06:40.382Z,6.2
2018-12-02T07:07:47.311Z,6.2
2018-12-02T07:08:54.530Z,6.2
2018-12-02T07:10:01.745Z,6.2
2018-12-02T07:11:08.960Z,6.2
2018-12-02T07:12:16.171Z,6.2
2018-12-02T07:13:23.384Z,6.2
2018-12-02T07:14:30.600Z,6.2
2018-12-02T07:15:37.545Z,6.2
2018-12-02T07:16:44.750Z,6.2
2018-12-02T07:17:51.973Z,6.2
2018-12-02T07:18:58.659Z,6.2
2018-12-02T07:20:05.880Z,6.2
2018-12-02T07:21:13.082Z,6.2
2018-12-02T07:22:20.309Z,6.2
2018-12-02T07:23:27.253Z,6.2
2018-12-02T07:24:34.495Z,6.2
2018-12-02T07:25:41.428Z,6.2
2018-12-02T07:26:48.666Z,6.3
2018-12-02T07:27:55.879Z,6.3
2018-12-02T07:29:03.102Z,6.3
2018-12-02T07:30:10.308Z,6.3
2018-12-02T07:31:17.248Z,6.3
2018-12-02T07:32:24.456Z,6.3
2018-12-02T07:33:31.684Z,6.3
2018-12-02T07:34:38.887Z,6.3
2018-12-02T07:35:46.116Z,6.3
2018-12-02T07:36:53.049Z,6.3
2018-12-02T07:38:00.270Z,6.3
2018-12-02T07:39:07.480Z,6.3
2018-12-02T07:40:14.422Z,6.3
2018-12-02T07:41:21.624Z,6.3
2018-12-02T07:42:28.569Z,6.4
2018-12-02T07:43:35.779Z,6.4
2018-12-02T07:44:42.721Z,6.4
2018-12-02T07:45:49.924Z,6.4
2018-12-02T07:46:57.152Z,6.4
2018-12-02T07:48:04.362Z,6.4
2018-12-02T07:49:11.311Z,6.4
2018-12-02T07:50:18.242Z,6.4
2018-12-02T07:51:25.461Z,6.4
2018-12-02T07:52:32.663Z,6.4
2018-12-02T07:53:39.885Z,6.4
2018-12-02T07:54:46.826Z,6.4
2018-12-02T07:55:54.053Z,6.4
2018-12-02T07:57:01.264Z,6.4
2018-12-02T07:58:08.482Z,6.5
2018-12-02T07:59:15.689Z,6.4
2018-12-02T08:00:22.923Z,6.5
2018-12-02T08:01:30.116Z,6.5
2018-12-02T08:02:37.059Z,6.5
2018-12-02T08:03:44.289Z,6.5
2018-12-02T08:04:51.246Z,6.5
2018-12-02T08:05:58.453Z,6.5
2018-12-02T08:07:05.675Z,6.5
2018-12-02T08:08:12.874Z,6.5
2018-12-02T08:09:19.834Z,6.5
2018-12-02T08:10:27.047Z,6.5
2018-12-02T08:11:34.278Z,6.5
2018-12-02T08:12:41.487Z,6.5
2018-12-02T08:13:48.714Z,6.5
2018-12-02T08:14:55.922Z,6.5
2018-12-02T08:16:03.142Z,6.5
2018-12-02T08:17:10.351Z,6.6
2018-12-02T08:18:17.294Z,6.6
2018-12-02T08:19:24.501Z,6.6
2018-12-02T08:20:31.952Z,6.6
2018-12-02T08:21:38.591Z,6.6
2018-12-02T08:22:51.085Z,6.6
2018-12-02T08:23:58.568Z,6.6
2018-12-02T08:25:05.788Z,6.6
2018-12-02T08:26:12.995Z,6.6
2018-12-02T08:27:20.219Z,6.6
2018-12-02T08:28:27.466Z,6.6
2018-12-02T08:29:34.683Z,6.6
2018-12-02T08:30:41.888Z,6.6
2018-12-02T08:31:48.839Z,6.6
2018-12-02T08:32:56.043Z,6.6
2018-12-02T08:34:03.266Z,6.6
2018-12-02T08:35:10.475Z,6.7
2018-12-02T08:36:17.698Z,6.6
2018-12-02T08:37:24.634Z,6.6
2018-12-02T08:38:31.851Z,6.6
2018-12-02T08:39:40.027Z,6.7
2018-12-02T08:40:47.288Z,6.7
2018-12-02T08:41:54.510Z,6.7
2018-12-02T08:43:01.724Z,6.7
2018-12-02T08:44:08.935Z,6.7
2018-12-02T08:45:16.156Z,6.7
2018-12-02T08:46:23.363Z,6.7
2018-12-02T08:47:30.592Z,6.7
2018-12-02T08:48:37.795Z,6.7
2018-12-02T08:49:45.048Z,6.7
2018-12-02T08:50:51.993Z,6.7
2018-12-02T08:51:59.220Z,6.7
2018-12-02T08:53:06.425Z,6.7
2018-12-02T08:54:13.375Z,6.7
2018-12-02T08:55:20.584Z,6.7
2018-12-02T08:56:27.811Z,6.7
2018-12-02T08:57:35.015Z,6.7
2018-12-02T08:58:42.241Z,6.7
2018-12-02T08:59:49.443Z,6.7
2018-12-02T09:00:56.661Z,6.8
2018-12-02T09:02:03.873Z,6.7
2018-12-02T09:03:11.099Z,6.8
2018-12-02T09:04:18.304Z,6.8
2018-12-02T09:05:25.532Z,6.8
2018-12-02T09:06:32.738Z,6.8
2018-12-02T09:07:39.956Z,6.8
2018-12-02T09:08:46.901Z,6.8
2018-12-02T09:10:00.048Z,6.8
2018-12-02T09:11:07.259Z,6.8
2018-12-02T09:12:14.209Z,6.8
2018-12-02T09:13:21.441Z,6.8
2018-12-02T09:14:28.661Z,6.8
2018-12-02T09:15:35.871Z,6.9
2018-12-02T09:16:42.813Z,6.9
2018-12-02T09:17:49.747Z,6.9
2018-12-02T09:18:56.696Z,6.9
2018-12-02T09:20:03.631Z,6.9
2018-12-02T09:21:10.855Z,6.9
2018-12-02T09:22:17.784Z,6.9
2018-12-02T09:23:24.732Z,6.9
2018-12-02T09:24:31.676Z,6.9
2018-12-02T09:25:38.885Z,6.9
2018-12-02T09:26:46.091Z,6.9
2018-12-02T09:27:53.035Z,7
2018-12-02T09:28:59.962Z,7
2018-12-02T09:30:06.911Z,7
2018-12-02T09:31:13.960Z,7
2018-12-02T09:32:21.244Z,7
2018-12-02T09:33:28.449Z,7
2018-12-02T09:34:35.405Z,7
2018-12-02T09:35:42.340Z,7.1
2018-12-02T09:36:49.568Z,7
2018-12-02T09:37:56.774Z,7.1
2018-12-02T09:39:03.724Z,7.1
2018-12-02T09:40:10.668Z,7.1
2018-12-02T09:41:17.648Z,7.1
2018-12-02T09:42:24.858Z,7.1
2018-12-02T09:43:32.109Z,7.1
2018-12-02T09:44:39.343Z,7.1
2018-12-02T09:45:46.558Z,7.1
2018-12-02T09:46:53.761Z,7.1
2018-12-02T09:48:00.984Z,7.1
2018-12-02T09:49:08.192Z,7.1
2018-12-02T09:50:15.408Z,7.1
2018-12-02T09:51:23.551Z,7.1
2018-12-02T09:52:30.503Z,7.1
2018-12-02T09:53:37.729Z,7.2
2018-12-02T09:54:44.671Z,7.2
2018-12-02T09:55:51.603Z,7.2
2018-12-02T09:56:58.589Z,7.2
2018-12-02T09:58:05.821Z,7.2
2018-12-02T09:59:13.043Z,7.2
2018-12-02T10:00:20.246Z,7.2
2018-12-02T10:01:26.916Z,7.2
2018-12-02T10:02:34.123Z,7.2
2018-12-02T10:03:41.343Z,7.2
2018-12-02T10:04:48.291Z,7.2
2018-12-02T10:05:55.225Z,7.2
2018-12-02T10:07:02.435Z,7.2
2018-12-02T10:08:09.672Z,7.3
2018-12-02T10:09:16.886Z,7.2
2018-12-02T10:10:24.106Z,7.2
2018-12-02T10:11:31.317Z,7.2
2018-12-02T10:12:38.537Z,7.2
2018-12-02T10:13:45.737Z,7.2
2018-12-02T10:14:52.964Z,7.3
2018-12-02T10:15:59.900Z,7.3
2018-12-02T10:17:07.358Z,7.3
2018-12-02T10:18:14.575Z,7.3
2018-12-02T10:19:21.800Z,7.3
2018-12-02T10:20:29.020Z,7.3
2018-12-02T10:21:35.702Z,7.3
2018-12-02T10:22:42.910Z,7.3
2018-12-02T10:23:49.888Z,7.3
2018-12-02T10:24:57.093Z,7.3
2018-12-02T10:26:04.318Z,7.4
2018-12-02T10:27:11.533Z,7.4
2018-12-02T10:28:18.478Z,7.4
2018-12-02T10:29:25.695Z,7.4
2018-12-02T10:30:32.642Z,7.4
2018-12-02T10:31:39.299Z,7.4
2018-12-02T10:32:46.248Z,7.4
2018-12-02T10:33:53.462Z,7.4
2018-12-02T10:35:00.693Z,7.4
2018-12-02T10:36:07.627Z,7.4
2018-12-02T10:37:14.579Z,7.4
2018-12-02T10:38:21.783Z,7.4
2018-12-02T10:39:28.732Z,7.4
2018-12-02T10:40:35.950Z,7.4
2018-12-02T10:41:42.909Z,7.4
2018-12-02T10:42:49.533Z,7.4
2018-12-02T10:43:56.222Z,7.4
2018-12-02T10:45:03.424Z,7.4
2018-12-02T10:46:10.644Z,7.4
2018-12-02T10:47:19.720Z,7.5
2018-12-02T10:48:26.946Z,7.4
2018-12-02T10:49:33.886Z,7.5
2018-12-02T10:50:41.107Z,7.5
2018-12-02T10:51:48.317Z,7.5
2018-12-02T10:52:55.546Z,7.5
2018-12-02T10:54:02.784Z,7.5
2018-12-02T10:55:09.731Z,7.5
2018-12-02T10:56:16.663Z,7.5
2018-12-02T10:57:23.341Z,7.6
2018-12-02T10:58:30.560Z,7.6
2018-12-02T10:59:37.789Z,7.6
2018-12-02T11:00:44.995Z,7.6
2018-12-02T11:01:52.219Z,7.6
2018-12-02T11:02:59.432Z,7.6
2018-12-02T11:04:06.654Z,7.6
2018-12-02T11:05:13.868Z,7.7
2018-12-02T11:06:21.097Z,7.7
2018-12-02T11:07:28.302Z,7.7
2018-12-02T11:08:35.532Z,7.7
2018-12-02T11:09:42.753Z,7.7
2018-12-02T11:10:50.019Z,7.7
2018-12-02T11:11:56.407Z,7.7
2018-12-02T11:13:03.066Z,7.7
2018-12-02T11:14:10.483Z,7.7
2018-12-02T11:15:17.707Z,7.7
2018-12-02T11:16:24.644Z,7.7
2018-12-02T11:17:31.597Z,7.7
2018-12-02T11:18:38.811Z,7.8
2018-12-02T11:19:45.759Z,7.8
2018-12-02T11:20:52.979Z,7.8
2018-12-02T11:22:00.205Z,7.8
2018-12-02T11:23:07.135Z,7.8
2018-12-02T11:24:14.397Z,7.8
2018-12-02T11:25:21.614Z,7.8
2018-12-02T11:26:28.573Z,7.8
2018-12-02T11:27:35.784Z,7.8
2018-12-02T11:28:42.755Z,7.8
2018-12-02T11:29:49.969Z,7.8
2018-12-02T11:30:57.190Z,7.8
2018-12-02T11:32:04.411Z,7.9
2018-12-02T11:33:11.363Z,7.9
2018-12-02T11:34:18.571Z,7.9
2018-12-02T11:35:25.800Z,7.9
2018-12-02T11:36:33.016Z,7.9
2018-12-02T11:37:39.988Z,7.9
2018-12-02T11:38:47.195Z,8
2018-12-02T11:39:54.402Z,8
2018-12-02T11:41:01.349Z,8
2018-12-02T11:42:08.304Z,8
2018-12-02T11:43:15.513Z,8
2018-12-02T11:44:22.465Z,8
2018-12-02T11:45:29.670Z,8
2018-12-02T11:46:36.622Z,8
2018-12-02T11:47:43.836Z,8
2018-12-02T11:48:50.804Z,8.1
2018-12-02T11:49:58.007Z,8
2018-12-02T11:51:05.232Z,8
2018-12-02T11:52:12.448Z,8.1
2018-12-02T11:53:19.685Z,8.1
2018-12-02T11:54:26.624Z,8.1
2018-12-02T11:55:33.568Z,8.1
2018-12-02T11:56:40.502Z,8.1
2018-12-02T11:57:47.736Z,8.1
2018-12-02T11:58:55.338Z,8.1
2018-12-02T12:00:02.575Z,8.1
2018-12-02T12:01:09.510Z,8.1
2018-12-02T12:02:16.474Z,8.1
2018-12-02T12:03:23.861Z,8.1
2018-12-02T12:04:31.097Z,8.1
2018-12-02T12:05:38.044Z,8.2
2018-12-02T12:06:45.279Z,8.2
2018-12-02T12:07:52.515Z,8.2
2018-12-02T12:08:59.750Z,8.2
2018-12-02T12:10:06.710Z,8.2
2018-12-02T12:11:13.943Z,8.2
2018-12-02T12:12:21.166Z,8.2
2018-12-02T12:13:28.141Z,8.2
2018-12-02T12:14:35.095Z,8.2
2018-12-02T12:15:42.067Z,8.2
2018-12-02T12:16:49.011Z,8.3
2018-12-02T12:17:56.249Z,8.2
2018-12-02T12:19:03.511Z,8.3
2018-12-02T12:20:10.965Z,8.3
2018-12-02T12:21:17.936Z,8.3
2018-12-02T12:22:24.659Z,8.3
2018-12-02T12:23:31.612Z,8.3
2018-12-02T12:24:38.573Z,8.3
2018-12-02T12:25:45.536Z,8.3
2018-12-02T12:26:52.774Z,8.3
2018-12-02T12:28:00.004Z,8.3
2018-12-02T12:29:07.242Z,8.3
2018-12-02T12:30:14.465Z,8.3
2018-12-02T12:31:22.068Z,8.3
2018-12-02T12:32:29.289Z,8.3
2018-12-02T12:33:36.259Z,8.4
2018-12-02T12:34:43.221Z,8.4
2018-12-02T12:35:50.468Z,8.4
2018-12-02T12:36:57.426Z,8.4
2018-12-02T12:38:04.405Z,8.4
2018-12-02T12:39:11.356Z,8.4
2018-12-02T12:40:18.317Z,8.4
2018-12-02T12:41:25.539Z,8.4
2018-12-02T12:42:32.821Z,8.5
2018-12-02T12:43:40.047Z,8.5
2018-12-02T12:44:47.010Z,8.5
2018-12-02T12:45:54.435Z,8.5
2018-12-02T12:47:01.692Z,8.5
2018-12-02T12:48:08.920Z,8.5
2018-12-02T12:49:15.602Z,8.5
2018-12-02T12:50:23.267Z,8.5
2018-12-02T12:51:30.501Z,8.5
2018-12-02T12:52:37.932Z,8.5
2018-12-02T12:53:45.180Z,8.5
2018-12-02T12:54:52.136Z,8.5
2018-12-02T12:55:59.384Z,8.6
2018-12-02T12:57:06.336Z,8.6
2018-12-02T12:58:13.300Z,8.5
2018-12-02T12:59:20.258Z,8.6
2018-12-02T13:00:27.222Z,8.6
2018-12-02T13:01:34.450Z,8.6
2018-12-02T13:02:41.687Z,8.6
2018-12-02T13:03:49.131Z,8.6
2018-12-02T13:04:56.380Z,8.6
2018-12-02T13:06:03.605Z,8.6
2018-12-02T13:07:10.548Z,8.6
2018-12-02T13:08:17.776Z,8.6
2018-12-02T13:09:24.738Z,8.6
2018-12-02T13:10:31.705Z,8.6
2018-12-02T13:11:38.695Z,8.6
2018-12-02T13:12:45.927Z,8.6
2018-12-02T13:13:53.192Z,8.6
2018-12-02T13:15:00.417Z,8.6
2018-12-02T13:16:07.659Z,8.6
2018-12-02T13:17:14.350Z,8.6
2018-12-02T13:18:21.591Z,8.6
2018-12-02T13:19:28.822Z,8.6
2018-12-02T13:20:35.789Z,8.6
2018-12-02T13:21:42.995Z,8.7
2018-12-02T13:22:50.249Z,8.7
2018-12-02T13:23:57.484Z,8.7
2018-12-02T13:25:04.451Z,8.7
2018-12-02T13:26:11.680Z,8.7
2018-12-02T13:27:18.923Z,8.7
2018-12-02T13:28:26.147Z,8.7
2018-12-02T13:29:33.379Z,8.7
2018-12-02T13:30:40.609Z,8.7
2018-12-02T13:31:47.850Z,8.7
2018-12-02T13:32:55.076Z,8.8
2018-12-02T13:34:02.345Z,8.8
2018-12-02T13:35:09.032Z,8.8
2018-12-02T13:36:16.015Z,8.9
2018-12-02T13:37:23.254Z,8.9
2018-12-02T13:38:30.500Z,9
2018-12-02T13:39:37.722Z,9
2018-12-02T13:40:44.962Z,9
2018-12-02T13:41:52.202Z,9
2018-12-02T13:42:58.879Z,9
2018-12-02T13:44:05.836Z,9
2018-12-02T13:45:13.464Z,9.1
2018-12-02T13:46:20.717Z,9.1
2018-12-02T13:47:28.364Z,9.1
2018-12-02T13:48:35.604Z,9.1
2018-12-02T13:49:42.854Z,9.1
2018-12-02T13:50:50.083Z,9.1
2018-12-02T13:51:57.516Z,9.1
2018-12-02T13:53:04.770Z,9.1
2018-12-02T13:54:11.459Z,9.1
2018-12-02T13:55:18.692Z,9.1
2018-12-02T13:56:25.678Z,9.1
2018-12-02T13:57:32.637Z,9.1
2018-12-02T13:58:39.880Z,9.2
2018-12-02T13:59:47.112Z,9.2
2018-12-02T14:00:54.074Z,9.2
2018-12-02T14:02:01.022Z,9.2
2018-12-02T14:03:08.271Z,9.2
2018-12-02T14:04:15.208Z,9.2
2018-12-02T14:05:23.733Z,9.2
2018-12-02T14:06:30.962Z,9.2
2018-12-02T14:07:37.923Z,9.2
2018-12-02T14:08:45.170Z,9.2
2018-12-02T14:09:52.420Z,9.2
2018-12-02T14:10:59.856Z,9.2
2018-12-02T14:12:07.109Z,9.2
2018-12-02T14:13:14.341Z,9.3
2018-12-02T14:14:21.574Z,9.3
2018-12-02T14:15:29.034Z,9.3
2018-12-02T14:16:36.470Z,9.3
2018-12-02T14:17:43.918Z,9.3
2018-12-02T14:18:50.883Z,9.3
2018-12-02T14:19:57.835Z,9.3
2018-12-02T14:21:04.810Z,9.3
2018-12-02T14:22:12.039Z,9.3
2018-12-02T14:23:18.730Z,9.3
2018-12-02T14:24:25.692Z,9.3
2018-12-02T14:25:32.928Z,9.4
2018-12-02T14:26:40.142Z,9.4
2018-12-02T14:27:47.385Z,9.4
2018-12-02T14:28:54.354Z,9.4
2018-12-02T14:30:01.315Z,9.4
2018-12-02T14:31:08.534Z,9.4
2018-12-02T14:32:15.500Z,9.4
2018-12-02T14:33:22.440Z,9.4
2018-12-02T14:34:29.674Z,9.5
2018-12-02T14:35:36.898Z,9.5
2018-12-02T14:36:44.130Z,9.5
2018-12-02T14:37:51.560Z,9.5
2018-12-02T14:38:58.743Z,9.5
2018-12-02T14:40:05.696Z,9.5
2018-12-02T14:41:12.941Z,9.5
2018-12-02T14:42:20.169Z,9.5
2018-12-02T14:43:27.393Z,9.5
2018-12-02T14:44:34.634Z,9.6
2018-12-02T14:45:41.880Z,9.5
2018-12-02T14:46:48.842Z,9.5
2018-12-02T14:47:56.302Z,9.6
2018-12-02T14:49:03.259Z,9.6
2018-12-02T14:50:10.236Z,9.6
2018-12-02T14:51:17.462Z,9.6
2018-12-02T14:52:24.691Z,9.7
2018-12-02T14:53:31.918Z,9.6
2018-12-02T14:54:39.158Z,9.6
2018-12-02T14:55:46.395Z,9.7
2018-12-02T14:56:53.631Z,9.7
2018-12-02T14:58:00.855Z,9.7
2018-12-02T14:59:08.105Z,9.7
2018-12-02T15:00:14.997Z,9.7
2018-12-02T15:01:22.181Z,9.7
2018-12-02T15:02:29.141Z,9.7
2018-12-02T15:03:36.386Z,9.7
2018-12-02T15:04:43.338Z,9.7
2018-12-02T15:05:50.591Z,9.7
2018-12-02T15:06:57.840Z,9.7
2018-12-02T15:08:05.089Z,9.7
2018-12-02T15:09:12.309Z,9.7
2018-12-02T15:10:19.267Z,9.7
2018-12-02T15:11:26.710Z,9.7
2018-12-02T15:12:33.976Z,9.8
2018-12-02T15:13:41.362Z,9.8
2018-12-02T15:14:48.805Z,9.8
2018-12-02T15:15:56.054Z,9.8
2018-12-02T15:17:03.296Z,9.8
2018-12-02T15:18:10.259Z,9.8
2018-12-02T15:19:17.488Z,9.8
2018-12-02T15:20:24.721Z,9.8
2018-12-02T15:21:31.690Z,9.8
2018-12-02T15:22:38.645Z,9.9
2018-12-02T15:23:45.881Z,9.9
2018-12-02T15:24:53.104Z,9.9
2018-12-02T15:26:00.348Z,10
2018-12-02T15:27:07.781Z,10